Time;durP1;ratioP1;P1;durP2;ratioP2;P2;SDS_P1;SDS_P2;PMS_P1;PMS_P2;Temp;Humidity;BMP_temperature;BMP_pressure;BME280_temperature;BME280_humidity;BME280_pressure;Samples;Min_cycle;Max_cycle;Signal;HPM_P1;HPM_P2
2021/01/24 00:02:05;;;;;;;10.13;8.52;;;3.60;88.00;;;;;;4995491;28;20545;-79
2021/01/24 00:04:32;;;;;;;12.55;9.25;;;3.80;87.90;;;;;;4993026;28;20286;-79
2021/01/24 00:06:59;;;;;;;12.85;9.00;;;3.50;88.50;;;;;;4991197;28;20242;-81
2021/01/24 00:09:25;;;;;;;17.63;9.20;;;3.20;89.80;;;;;;5004008;28;20222;-79
2021/01/24 00:11:52;;;;;;;20.45;11.15;;;3.20;90.00;;;;;;4982365;28;20437;-80
2021/01/24 00:14:19;;;;;;;13.43;10.57;;;3.40;89.90;;;;;;4987780;28;20239;-79
2021/01/24 00:16:45;;;;;;;16.05;12.02;;;3.40;90.00;;;;;;5010293;28;20517;-78
2021/01/24 00:19:12;;;;;;;13.80;11.38;;;3.40;90.00;;;;;;4994074;28;20218;-78
2021/01/24 00:21:39;;;;;;;12.95;11.00;;;3.20;90.10;;;;;;4987312;28;20298;-78
2021/01/24 00:24:06;;;;;;;13.07;10.70;;;3.40;90.10;;;;;;5006804;28;20219;-77
2021/01/24 00:26:32;;;;;;;18.05;12.50;;;3.50;89.60;;;;;;5005240;28;20210;-79
2021/01/24 00:29:00;;;;;;;15.85;11.80;;;3.30;90.10;;;;;;4992867;28;20250;-80
2021/01/24 00:31:26;;;;;;;15.70;11.60;;;2.80;90.80;;;;;;4977297;28;20651;-78
2021/01/24 00:33:53;;;;;;;15.30;11.20;;;2.50;91.60;;;;;;4991884;28;20258;-79
2021/01/24 00:36:20;;;;;;;12.43;9.38;;;2.60;91.80;;;;;;4993151;28;20238;-79
2021/01/24 00:38:50;;;;;;;17.63;9.80;;;2.40;91.90;;;;;;4992149;28;20249;-78
2021/01/24 00:41:17;;;;;;;14.77;12.18;;;2.20;92.20;;;;;;5000264;28;20211;-78
2021/01/24 00:43:43;;;;;;;15.18;10.15;;;2.20;92.60;;;;;;4997208;28;20216;-79
2021/01/24 00:46:11;;;;;;;13.00;10.10;;;2.30;92.50;;;;;;4990964;28;20517;-79
2021/01/24 00:48:38;;;;;;;11.55;8.65;;;2.30;92.60;;;;;;5005125;28;20218;-81
2021/01/24 00:51:05;;;;;;;10.80;8.43;;;2.30;92.80;;;;;;4996562;28;20300;-80
2021/01/24 00:53:33;;;;;;;13.02;10.27;;;2.20;92.80;;;;;;4993621;28;20402;-79
2021/01/24 00:55:59;;;;;;;10.57;8.65;;;2.20;93.00;;;;;;5011670;28;20442;-80
2021/01/24 00:58:26;;;;;;;9.38;7.18;;;2.20;92.90;;;;;;4993450;28;20207;-80
2021/01/24 01:00:53;;;;;;;12.43;8.95;;;2.30;92.80;;;;;;4977416;28;20206;-79
2021/01/24 01:03:19;;;;;;;8.38;7.55;;;2.10;92.60;;;;;;4977777;28;20210;-79
2021/01/24 01:05:46;;;;;;;10.48;7.75;;;2.30;92.70;;;;;;4989462;28;20471;-78
2021/01/24 01:08:13;;;;;;;6.32;5.72;;;2.30;92.60;;;;;;4997508;28;20221;-77
2021/01/24 01:10:41;;;;;;;7.22;6.20;;;2.40;92.40;;;;;;4993576;28;20620;-78
2021/01/24 01:13:08;;;;;;;6.57;5.88;;;2.40;92.30;;;;;;4984198;28;21799;-79
2021/01/24 01:15:35;;;;;;;7.88;6.55;;;2.50;92.00;;;;;;5000205;28;20221;-80
2021/01/24 01:18:02;;;;;;;6.72;5.85;;;2.60;91.90;;;;;;5000297;28;20420;-79
2021/01/24 01:20:29;;;;;;;7.00;5.68;;;2.70;91.70;;;;;;4997799;28;20213;-79
2021/01/24 01:22:56;;;;;;;7.38;6.43;;;2.80;91.40;;;;;;5000538;28;20305;-78
2021/01/24 01:25:23;;;;;;;7.70;6.03;;;2.90;91.30;;;;;;4994858;28;20281;-79
2021/01/24 01:27:50;;;;;;;7.72;6.53;;;3.10;91.00;;;;;;5002171;28;20221;-79
2021/01/24 01:30:17;;;;;;;9.05;7.57;;;3.10;90.70;;;;;;4997310;28;20294;-78
2021/01/24 01:32:44;;;;;;;8.55;7.70;;;3.10;90.70;;;;;;4996432;28;20210;-79
2021/01/24 01:35:11;;;;;;;9.90;8.00;;;3.00;90.80;;;;;;4989327;28;20241;-79
2021/01/24 01:37:38;;;;;;;7.47;5.88;;;2.90;91.20;;;;;;5006831;28;20401;-80
2021/01/24 01:40:07;;;;;;;10.38;8.52;;;3.10;91.00;;;;;;4999804;28;20505;-80
2021/01/24 01:42:38;;;;;;;12.43;9.82;;;3.20;90.80;;;;;;4988756;28;20278;-81
2021/01/24 01:45:06;;;;;;;13.90;9.68;;;3.20;90.70;;;;;;4994117;28;20203;-80
2021/01/24 01:47:38;;;;;;;10.77;8.57;;;3.20;90.90;;;;;;4999877;28;20266;-80
2021/01/24 01:50:05;;;;;;;14.23;9.55;;;3.30;90.90;;;;;;4988965;28;20239;-79
2021/01/24 01:52:32;;;;;;;19.60;12.32;;;3.20;90.90;;;;;;4998724;28;20224;-79
2021/01/24 01:54:59;;;;;;;17.00;11.60;;;3.00;91.10;;;;;;4999256;28;20272;-79
2021/01/24 01:57:26;;;;;;;18.33;12.65;;;2.90;91.70;;;;;;4996133;28;20386;-80
2021/01/24 01:59:54;;;;;;;14.88;11.23;;;2.80;92.00;;;;;;4984495;28;20233;-79
2021/01/24 02:02:58;;;;;;;14.88;11.27;;;2.90;91.90;;;;;;4991760;28;20210;-79
2021/01/24 02:05:48;;;;;;;16.35;11.38;;;2.90;91.90;;;;;;5005755;28;20310;-79
2021/01/24 02:08:51;;;;;;;14.57;10.93;;;3.00;91.60;;;;;;4995868;28;20267;-79
2021/01/24 02:11:29;;;;;;;17.60;12.75;;;3.10;91.40;;;;;;5003878;28;20233;-79
2021/01/24 02:14:22;;;;;;;17.38;12.32;;;3.10;91.40;;;;;;4995607;28;20242;-79
2021/01/24 02:16:51;;;;;;;14.55;11.88;;;2.90;91.60;;;;;;4990449;28;20214;-79
2021/01/24 02:19:26;;;;;;;16.30;11.77;;;3.00;91.60;;;;;;4995594;28;20218;-79
2021/01/24 02:21:54;;;;;;;12.18;10.20;;;3.10;91.40;;;;;;4988914;28;20219;-79
2021/01/24 02:24:25;;;;;;;11.68;8.73;;;3.30;91.30;;;;;;4998827;28;20435;-78
2021/01/24 02:26:59;;;;;;;13.02;9.35;;;3.20;91.00;;;;;;4998534;28;20570;-79
2021/01/24 02:29:48;;;;;;;13.88;10.43;;;3.00;91.00;;;;;;5018762;28;20502;-80
2021/01/24 02:32:17;;;;;;;11.35;9.15;;;2.80;91.70;;;;;;4998970;28;20206;-78
2021/01/24 02:34:46;;;;;;;13.70;10.77;;;2.60;92.20;;;;;;4998472;28;20221;-80
2021/01/24 02:37:15;;;;;;;14.18;10.32;;;2.70;92.60;;;;;;4998515;28;20207;-81
2021/01/24 02:39:43;;;;;;;13.95;10.48;;;2.70;92.50;;;;;;4998646;28;20416;-80
2021/01/24 02:42:10;;;;;;;9.77;8.77;;;2.70;92.90;;;;;;4997552;28;20215;-80
2021/01/24 02:44:38;;;;;;;13.82;10.55;;;2.50;92.70;;;;;;4997935;28;20217;-79
2021/01/24 02:47:06;;;;;;;11.60;8.98;;;2.40;92.80;;;;;;4996787;28;20246;-78
2021/01/24 02:49:35;;;;;;;13.05;10.18;;;2.40;93.00;;;;;;4998047;28;20272;-78
2021/01/24 02:52:05;;;;;;;11.32;9.32;;;2.30;93.40;;;;;;4995678;28;20290;-80
2021/01/24 02:54:32;;;;;;;13.40;10.63;;;2.20;93.60;;;;;;4989078;28;20285;-79
2021/01/24 02:56:59;;;;;;;12.80;9.80;;;2.20;93.70;;;;;;4996877;28;20221;-79
2021/01/24 02:59:27;;;;;;;27.85;16.30;;;2.10;94.20;;;;;;4997021;28;20785;-81
2021/01/24 03:01:54;;;;;;;35.88;21.60;;;2.00;94.40;;;;;;4998115;28;20395;-78
2021/01/24 03:04:21;;;;;;;36.42;20.95;;;2.20;94.40;;;;;;4998691;28;20447;-77
2021/01/24 03:06:48;;;;;;;33.58;20.10;;;2.30;94.20;;;;;;4999117;28;20241;-77
2021/01/24 03:09:14;;;;;;;29.42;20.35;;;2.30;94.40;;;;;;4994667;28;20213;-77
2021/01/24 03:11:45;;;;;;;28.38;18.98;;;2.50;94.20;;;;;;4989094;28;20233;-77
2021/01/24 03:14:19;;;;;;;23.42;16.65;;;2.50;93.80;;;;;;4982241;28;20268;-77
2021/01/24 03:16:48;;;;;;;19.65;15.15;;;2.40;93.90;;;;;;4989369;28;20201;-76
2021/01/24 03:19:18;;;;;;;29.63;17.02;;;2.30;94.00;;;;;;5013544;28;20228;-76
2021/01/24 03:21:47;;;;;;;16.75;13.88;;;2.40;94.20;;;;;;4997016;28;20272;-75
2021/01/24 03:24:17;;;;;;;24.10;15.27;;;2.60;94.40;;;;;;4990059;28;20214;-75
2021/01/24 03:26:45;;;;;;;19.58;13.55;;;2.50;94.10;;;;;;4998814;28;20281;-75
2021/01/24 03:29:12;;;;;;;19.17;13.40;;;2.40;94.40;;;;;;4997335;28;20217;-75
2021/01/24 03:31:43;;;;;;;18.75;15.13;;;2.50;94.40;;;;;;4997529;28;20233;-76
2021/01/24 03:34:19;;;;;;;18.75;14.07;;;2.40;94.40;;;;;;4996295;28;20209;-75
2021/01/24 03:36:49;;;;;;;20.17;15.35;;;2.40;94.30;;;;;;4985701;28;20404;-75
2021/01/24 03:39:17;;;;;;;19.23;14.23;;;2.50;94.00;;;;;;4997390;28;20210;-74
2021/01/24 03:41:44;;;;;;;19.42;14.07;;;3.10;94.10;;;;;;4995334;28;20220;-75
2021/01/24 03:44:11;;;;;;;16.63;13.02;;;2.80;93.50;;;;;;4996297;28;20210;-75
2021/01/24 03:46:38;;;;;;;16.90;12.85;;;3.00;93.30;;;;;;4995850;28;20245;-75
2021/01/24 03:49:06;;;;;;;16.85;13.23;;;3.00;92.90;;;;;;4997245;28;20237;-75
2021/01/24 03:51:42;;;;;;;19.65;15.18;;;3.00;92.90;;;;;;4994439;28;20257;-75
2021/01/24 03:54:09;;;;;;;17.50;13.68;;;3.40;93.10;;;;;;4998310;28;20212;-75
2021/01/24 03:56:36;;;;;;;22.23;15.32;;;3.20;92.80;;;;;;4998575;28;20218;-75
2021/01/24 03:59:03;;;;;;;23.90;16.48;;;3.80;92.50;;;;;;4998293;28;20222;-74
2021/01/24 04:01:33;;;;;;;19.60;14.32;;;3.40;92.20;;;;;;4998212;28;20219;-74
2021/01/24 04:03:59;;;;;;;19.73;15.23;;;3.40;92.10;;;;;;4993538;28;20214;-75
2021/01/24 04:06:26;;;;;;;23.50;17.13;;;3.40;92.10;;;;;;4989586;28;20241;-74
2021/01/24 04:08:52;;;;;;;23.77;14.80;;;3.40;92.20;;;;;;4996723;28;20197;-75
2021/01/24 04:11:19;;;;;;;20.38;14.88;;;3.50;92.20;;;;;;4997845;28;20237;-74
2021/01/24 04:13:47;;;;;;;20.60;16.45;;;3.50;92.00;;;;;;4981956;28;20244;-73
2021/01/24 04:16:13;;;;;;;25.23;15.52;;;3.60;92.10;;;;;;4992926;28;20374;-73
2021/01/24 04:18:41;;;;;;;22.60;20.13;;;3.60;91.90;;;;;;4983979;28;20218;-74
2021/01/24 04:21:08;;;;;;;39.58;30.38;;;3.60;92.10;;;;;;4997849;28;20209;-74
2021/01/24 04:23:35;;;;;;;33.75;27.65;;;3.50;92.30;;;;;;4986378;28;20275;-74
2021/01/24 04:26:01;;;;;;;25.00;18.00;;;3.80;92.40;;;;;;4995347;28;20215;-74
2021/01/24 04:28:28;;;;;;;21.98;15.70;;;3.50;92.50;;;;;;4987317;28;20218;-74
2021/01/24 04:30:54;;;;;;;21.27;15.45;;;3.60;92.50;;;;;;4981506;28;20314;-73
2021/01/24 04:33:21;;;;;;;22.77;14.93;;;3.60;92.40;;;;;;4985818;28;20283;-74
2021/01/24 04:35:47;;;;;;;17.70;13.32;;;3.60;92.30;;;;;;4996625;28;20203;-73
2021/01/24 04:38:14;;;;;;;20.90;16.30;;;2.40;91.80;;;;;;4994014;28;20207;-74
2021/01/24 04:40:41;;;;;;;20.35;15.88;;;3.60;92.10;;;;;;4983285;28;20238;-74
2021/01/24 04:43:08;;;;;;;20.77;15.43;;;3.50;92.10;;;;;;4987805;28;20217;-74
2021/01/24 04:45:35;;;;;;;20.63;15.95;;;3.60;92.30;;;;;;4997119;28;20214;-74
2021/01/24 04:48:02;;;;;;;23.95;16.05;;;3.70;92.20;;;;;;4986312;28;20504;-74
2021/01/24 04:50:31;;;;;;;22.55;15.75;;;3.80;92.00;;;;;;4992765;28;20278;-74
2021/01/24 04:52:58;;;;;;;19.88;15.65;;;3.70;91.90;;;;;;4996949;28;20219;-74
2021/01/24 04:55:25;;;;;;;22.88;16.85;;;3.70;92.00;;;;;;5001681;28;20211;-74
2021/01/24 04:57:53;;;;;;;21.52;17.42;;;4.10;92.00;;;;;;5001382;28;20223;-74
2021/01/24 05:00:20;;;;;;;27.40;17.55;;;3.90;91.70;;;;;;4998241;28;20226;-74
2021/01/24 05:02:47;;;;;;;18.67;14.60;;;3.80;91.60;;;;;;4991012;28;20210;-74
2021/01/24 05:05:15;;;;;;;24.60;17.88;;;3.90;91.60;;;;;;5000911;28;20278;-74
2021/01/24 05:07:55;;;;;;;23.73;17.10;;;3.80;91.60;;;;;;5001261;28;20215;-74
2021/01/24 05:10:23;;;;;;;22.65;15.40;;;3.80;91.60;;;;;;5000804;28;20231;-75
2021/01/24 05:12:50;;;;;;;22.38;16.20;;;3.80;91.50;;;;;;5000468;28;20211;-75
2021/01/24 05:15:17;;;;;;;23.67;16.98;;;3.70;91.70;;;;;;4987371;28;20216;-74
2021/01/24 05:17:54;;;;;;;22.55;16.55;;;3.70;91.80;;;;;;4996074;28;20225;-74
2021/01/24 05:20:25;;;;;;;23.20;17.13;;;3.70;91.80;;;;;;4981838;28;20220;-76
2021/01/24 05:22:52;;;;;;;21.58;16.98;;;3.60;91.90;;;;;;4984723;28;20208;-73
2021/01/24 05:25:48;;;;;;;24.90;16.73;;;3.80;91.90;;;;;;5010557;28;20449;-75
2021/01/24 05:28:17;;;;;;;25.05;18.67;;;3.90;91.60;;;;;;5000418;28;20214;-75
2021/01/24 05:30:44;;;;;;;24.98;17.85;;;3.70;91.50;;;;;;4985651;28;20537;-76
2021/01/24 05:33:10;;;;;;;24.58;16.60;;;3.50;91.70;;;;;;5000173;28;20214;-75
2021/01/24 05:35:52;;;;;;;24.10;18.60;;;3.40;92.20;;;;;;5000795;28;20484;-75
2021/01/24 05:38:23;;;;;;;27.70;19.13;;;3.00;92.90;;;;;;4988995;28;20214;-75
2021/01/24 05:40:50;;;;;;;29.05;20.15;;;3.10;93.10;;;;;;5000909;28;20214;-75
2021/01/24 05:43:17;;;;;;;32.20;21.88;;;3.10;93.20;;;;;;4981592;28;20207;-75
2021/01/24 05:45:44;;;;;;;29.00;18.83;;;3.30;93.00;;;;;;4993613;28;20540;-74
2021/01/24 05:48:15;;;;;;;33.55;21.30;;;3.50;92.80;;;;;;4996060;28;20200;-74
2021/01/24 05:50:47;;;;;;;34.53;20.17;;;3.70;92.40;;;;;;4980369;28;20241;-75
2021/01/24 05:53:13;;;;;;;29.88;20.65;;;3.80;92.20;;;;;;4998837;28;20209;-74
2021/01/24 05:55:43;;;;;;;28.30;19.35;;;3.70;92.10;;;;;;5001837;28;20395;-75
2021/01/24 05:58:19;;;;;;;27.75;19.27;;;3.90;92.00;;;;;;5000613;28;20440;-75
2021/01/24 06:00:49;;;;;;;31.02;19.50;;;4.00;91.90;;;;;;4987707;28;20454;-75
2021/01/24 06:03:16;;;;;;;25.50;17.63;;;3.90;91.70;;;;;;4988260;28;20224;-74
2021/01/24 06:05:44;;;;;;;24.88;18.00;;;3.90;91.60;;;;;;4999307;28;20237;-75
2021/01/24 06:08:14;;;;;;;25.38;18.65;;;3.90;91.50;;;;;;4999682;28;20224;-75
2021/01/24 06:10:42;;;;;;;22.77;16.63;;;4.00;91.80;;;;;;4996005;28;20403;-75
2021/01/24 06:13:24;;;;;;;26.48;18.30;;;3.90;91.30;;;;;;4980686;28;20245;-74
2021/01/24 06:16:05;;;;;;;24.73;17.30;;;3.50;91.70;;;;;;4985048;28;20213;-75
2021/01/24 06:18:40;;;;;;;25.15;17.60;;;3.40;92.50;;;;;;5000665;28;20464;-75
2021/01/24 06:21:11;;;;;;;27.75;19.25;;;3.60;92.30;;;;;;4980699;28;20218;-74
2021/01/24 06:23:52;;;;;;;31.63;21.65;;;3.60;92.10;;;;;;4980915;28;20203;-74
2021/01/24 06:26:20;;;;;;;29.45;21.10;;;4.50;92.40;;;;;;4986941;28;20203;-74
2021/01/24 06:28:49;;;;;;;30.40;20.70;;;3.70;92.10;;;;;;4987291;28;20220;-73
2021/01/24 06:31:18;;;;;;;27.95;20.25;;;3.70;92.00;;;;;;4993919;28;20234;-74
2021/01/24 06:33:52;;;;;;;36.60;22.95;;;3.70;92.00;;;;;;4981126;28;20211;-74
2021/01/24 06:36:19;;;;;;;33.13;22.35;;;3.70;92.00;;;;;;4980963;28;20231;-76
2021/01/24 06:38:55;;;;;;;29.75;21.90;;;3.70;92.00;;;;;;4991499;28;20212;-75
2021/01/24 06:41:49;;;;;;;34.58;21.02;;;3.60;92.10;;;;;;4995065;28;20219;-75
2021/01/24 06:44:35;;;;;;;38.85;25.52;;;3.60;92.20;;;;;;4994878;28;20218;-75
2021/01/24 06:47:07;;;;;;;34.30;23.13;;;3.60;92.20;;;;;;4984685;28;20509;-75
2021/01/24 06:49:44;;;;;;;34.78;23.40;;;3.70;92.10;;;;;;4981246;28;20462;-73
2021/01/24 06:52:22;;;;;;;35.92;24.27;;;3.60;92.20;;;;;;4989647;28;20230;-75
2021/01/24 06:54:50;;;;;;;38.45;23.20;;;3.80;92.40;;;;;;4999553;28;20210;-73
2021/01/24 06:57:17;;;;;;;40.88;25.85;;;3.70;92.20;;;;;;5002754;28;20211;-73
2021/01/24 06:59:44;;;;;;;41.40;26.13;;;3.80;92.00;;;;;;5005721;28;20211;-74
2021/01/24 07:02:31;;;;;;;44.67;28.40;;;3.90;91.70;;;;;;4998634;28;20219;-74
2021/01/24 07:05:07;;;;;;;45.67;26.70;;;4.00;91.50;;;;;;4987061;28;20214;-74
2021/01/24 07:07:45;;;;;;;43.65;25.70;;;3.90;91.40;;;;;;4985277;28;20554;-73
2021/01/24 07:10:37;;;;;;;37.67;25.70;;;4.00;91.40;;;;;;4998524;28;20214;-73
2021/01/24 07:13:25;;;;;;;45.17;25.70;;;3.80;91.30;;;;;;4987941;28;20244;-74
2021/01/24 07:15:56;;;;;;;37.30;25.08;;;3.80;91.40;;;;;;4999780;28;20214;-73
2021/01/24 07:18:24;;;;;;;38.58;25.02;;;3.90;91.40;;;;;;4999041;28;20212;-74
2021/01/24 07:20:52;;;;;;;45.33;29.58;;;3.70;91.40;;;;;;4998581;28;20215;-73
2021/01/24 07:23:19;;;;;;;40.13;29.83;;;3.80;91.40;;;;;;4997656;28;20238;-73
2021/01/24 07:25:47;;;;;;;47.88;30.23;;;3.90;91.30;;;;;;4984912;28;20225;-73
2021/01/24 07:28:15;;;;;;;44.00;29.58;;;3.90;91.30;;;;;;4998959;28;20203;-72
2021/01/24 07:30:42;;;;;;;47.72;29.08;;;3.70;91.30;;;;;;4984818;28;20570;-73
2021/01/24 07:33:09;;;;;;;39.70;25.83;;;3.70;91.50;;;;;;4997449;28;20253;-74
2021/01/24 07:35:37;;;;;;;41.88;28.88;;;3.80;91.30;;;;;;4986463;28;20534;-73
2021/01/24 07:38:08;;;;;;;48.53;29.75;;;3.90;91.40;;;;;;4993815;28;20222;-72
2021/01/24 07:40:34;;;;;;;39.45;27.55;;;3.60;91.80;;;;;;4991039;28;20495;-73
2021/01/24 07:43:01;;;;;;;39.58;25.48;;;3.50;91.90;;;;;;4985265;28;20544;-73
2021/01/24 07:45:28;;;;;;;36.95;25.55;;;3.50;92.00;;;;;;4993592;28;20229;-74
2021/01/24 07:47:54;;;;;;;39.22;25.23;;;3.50;91.90;;;;;;4986941;28;20212;-73
2021/01/24 07:50:21;;;;;;;40.65;26.67;;;3.50;91.90;;;;;;4981052;28;20211;-73
2021/01/24 07:52:50;;;;;;;35.97;24.23;;;3.60;91.90;;;;;;4985360;28;20218;-73
2021/01/24 07:55:17;;;;;;;39.38;24.98;;;3.60;91.70;;;;;;4983998;28;20217;-73
2021/01/24 07:57:43;;;;;;;34.72;24.55;;;3.60;91.90;;;;;;4987931;28;20254;-72
2021/01/24 08:00:12;;;;;;;39.08;25.38;;;3.50;91.90;;;;;;4986094;28;20209;-72
2021/01/24 08:02:39;;;;;;;36.00;24.27;;;3.70;91.70;;;;;;4982350;28;20421;-72
2021/01/24 08:05:07;;;;;;;36.67;24.75;;;3.60;91.60;;;;;;4994972;28;20261;-72
2021/01/24 08:07:38;;;;;;;37.00;24.67;;;3.60;91.70;;;;;;4995104;28;20263;-72
2021/01/24 08:10:05;;;;;;;36.85;26.05;;;3.70;91.60;;;;;;4986833;28;20215;-72
2021/01/24 08:12:32;;;;;;;30.48;22.95;;;3.70;91.50;;;;;;4985863;28;20241;-72
2021/01/24 08:14:59;;;;;;;36.35;23.25;;;3.80;91.30;;;;;;4983726;28;20240;-72
2021/01/24 08:17:26;;;;;;;33.85;22.92;;;3.60;91.30;;;;;;4997038;28;20213;-72
2021/01/24 08:19:55;;;;;;;28.17;20.45;;;3.70;91.90;;;;;;4993898;28;20257;-71
2021/01/24 08:22:25;;;;;;;26.88;18.77;;;3.90;91.40;;;;;;4996606;28;20218;-72
2021/01/24 08:24:54;;;;;;;25.35;18.65;;;3.90;91.10;;;;;;4994347;28;20559;-71
2021/01/24 08:27:21;;;;;;;27.60;18.98;;;4.10;90.90;;;;;;4985534;28;20405;-72
2021/01/24 08:29:47;;;;;;;28.80;20.75;;;4.00;90.80;;;;;;5009647;28;20208;-72
2021/01/24 08:32:15;;;;;;;35.88;21.65;;;4.10;90.90;;;;;;4986050;28;20238;-71
2021/01/24 08:34:42;;;;;;;34.58;22.27;;;4.30;90.70;;;;;;4995400;28;20207;-71
2021/01/24 08:37:09;;;;;;;45.20;26.80;;;3.40;90.20;;;;;;4994570;28;20213;-71
2021/01/24 08:39:37;;;;;;;48.75;27.02;;;4.20;90.60;;;;;;4998760;28;20269;-71
2021/01/24 08:42:05;;;;;;;44.90;28.25;;;4.50;90.60;;;;;;4997871;28;20555;-71
2021/01/24 08:44:32;;;;;;;38.03;23.90;;;4.80;90.20;;;;;;4995531;28;20216;-70
2021/01/24 08:47:04;;;;;;;42.85;25.17;;;5.00;89.80;;;;;;4990308;28;20247;-70
2021/01/24 08:49:31;;;;;;;45.22;25.92;;;5.10;88.90;;;;;;4990384;28;20576;-70
2021/01/24 08:52:04;;;;;;;42.47;26.75;;;5.20;88.50;;;;;;4997617;28;20534;-71
2021/01/24 08:54:33;;;;;;;37.97;24.95;;;5.20;88.50;;;;;;4997011;28;20218;-71
2021/01/24 08:57:10;;;;;;;41.17;26.35;;;5.20;88.00;;;;;;4983334;28;20200;-71
2021/01/24 08:59:48;;;;;;;34.40;23.30;;;4.90;89.30;;;;;;4986854;28;20212;-73
2021/01/24 09:02:27;;;;;;;29.02;19.20;;;5.20;90.00;;;;;;4982883;28;20215;-72
2021/01/24 09:04:54;;;;;;;26.33;19.95;;;4.60;88.40;;;;;;4985379;28;20235;-72
2021/01/24 09:07:20;;;;;;;22.38;16.23;;;5.70;87.80;;;;;;4977663;28;20233;-74
2021/01/24 09:09:48;;;;;;;24.70;17.60;;;6.00;86.80;;;;;;4997511;28;20217;-74
2021/01/24 09:12:21;;;;;;;24.45;17.92;;;6.00;86.30;;;;;;4996898;28;20539;-74
2021/01/24 09:14:48;;;;;;;21.83;16.40;;;5.90;85.30;;;;;;4986504;28;20236;-73
2021/01/24 09:17:18;;;;;;;25.10;19.35;;;6.00;85.10;;;;;;4993453;28;20229;-73
2021/01/24 09:19:46;;;;;;;35.25;21.00;;;6.20;85.00;;;;;;4997154;28;20220;-73
2021/01/24 09:22:15;;;;;;;25.55;19.85;;;6.00;84.80;;;;;;4987112;28;20523;-74
2021/01/24 09:24:43;;;;;;;22.80;17.40;;;5.70;85.70;;;;;;4985233;28;20488;-73
2021/01/24 09:27:11;;;;;;;23.10;15.23;;;5.50;86.60;;;;;;4981306;28;20208;-72
2021/01/24 09:29:39;;;;;;;22.63;16.88;;;5.40;87.50;;;;;;4995187;28;20216;-73
2021/01/24 09:32:07;;;;;;;27.17;17.67;;;5.30;87.90;;;;;;4993314;28;20236;-73
2021/01/24 09:34:35;;;;;;;26.05;18.75;;;5.20;88.10;;;;;;4986487;28;20224;-73
2021/01/24 09:37:02;;;;;;;27.13;17.90;;;5.10;89.00;;;;;;4999763;28;20213;-73
2021/01/24 09:39:29;;;;;;;28.15;18.17;;;5.20;89.40;;;;;;4988013;28;20219;-73
2021/01/24 09:41:56;;;;;;;24.00;17.98;;;5.30;88.60;;;;;;4986064;28;20223;-73
2021/01/24 09:44:23;;;;;;;19.85;16.33;;;5.10;88.50;;;;;;4995123;28;20583;-73
2021/01/24 09:46:49;;;;;;;28.25;17.25;;;5.10;89.10;;;;;;4996000;28;20210;-75
2021/01/24 09:49:16;;;;;;;28.08;20.65;;;5.20;86.90;;;;;;4996557;28;20239;-75
2021/01/24 09:51:44;;;;;;;26.67;18.48;;;5.20;86.80;;;;;;4999584;28;20240;-74
2021/01/24 09:54:10;;;;;;;27.73;19.23;;;5.20;87.90;;;;;;4995375;28;20206;-73
2021/01/24 09:56:37;;;;;;;29.73;19.63;;;5.40;88.60;;;;;;4990499;28;20231;-74
2021/01/24 09:59:05;;;;;;;23.95;16.95;;;5.40;89.10;;;;;;4999369;28;20215;-73
2021/01/24 10:01:33;;;;;;;23.13;16.45;;;5.70;88.10;;;;;;4998052;28;20204;-74
2021/01/24 10:04:00;;;;;;;29.60;16.17;;;5.30;89.10;;;;;;4992333;28;20518;-72
2021/01/24 10:06:28;;;;;;;23.55;16.90;;;5.60;88.50;;;;;;4986826;28;20266;-74
2021/01/24 10:08:54;;;;;;;18.00;13.90;;;5.60;87.00;;;;;;5001753;28;20216;-75
2021/01/24 10:11:21;;;;;;;13.65;11.65;;;5.50;86.00;;;;;;4991653;28;20569;-74
2021/01/24 10:13:48;;;;;;;16.65;13.82;;;5.60;85.70;;;;;;5000209;28;20245;-75
2021/01/24 10:16:15;;;;;;;29.60;18.70;;;5.90;86.60;;;;;;4993146;28;20210;-72
2021/01/24 10:18:42;;;;;;;21.52;14.95;;;6.20;84.70;;;;;;5000333;28;20220;-74
2021/01/24 10:21:09;;;;;;;21.58;16.00;;;6.20;82.00;;;;;;4999124;28;20210;-73
2021/01/24 10:23:35;;;;;;;22.23;15.45;;;5.70;82.90;;;;;;4994147;28;20434;-74
2021/01/24 10:26:02;;;;;;;20.23;15.07;;;5.80;85.30;;;;;;4998575;28;20662;-75
2021/01/24 10:28:33;;;;;;;22.27;16.85;;;5.90;85.70;;;;;;4998648;28;20246;-73
2021/01/24 10:31:00;;;;;;;15.15;13.07;;;6.10;84.70;;;;;;4998463;28;20331;-73
2021/01/24 10:33:26;;;;;;;17.27;12.80;;;5.80;85.30;;;;;;4994694;28;20571;-75
2021/01/24 10:35:53;;;;;;;18.30;12.45;;;5.80;85.80;;;;;;4981842;28;20289;-73
2021/01/24 10:38:21;;;;;;;15.65;12.75;;;5.80;83.20;;;;;;4988200;28;20411;-75
2021/01/24 10:40:48;;;;;;;16.13;12.75;;;5.90;86.10;;;;;;4997293;28;20219;-74
2021/01/24 10:43:15;;;;;;;17.80;13.57;;;6.20;85.30;;;;;;4997148;28;20214;-73
2021/01/24 10:45:42;;;;;;;17.52;13.57;;;6.60;81.50;;;;;;4997529;28;20206;-73
2021/01/24 10:48:09;;;;;;;21.27;16.30;;;7.10;81.20;;;;;;4998078;28;20205;-75
2021/01/24 10:50:37;;;;;;;20.80;15.23;;;7.50;80.30;;;;;;4990939;28;20212;-74
2021/01/24 10:53:05;;;;;;;15.25;12.18;;;7.30;80.80;;;;;;4997636;28;20524;-74
2021/01/24 10:55:32;;;;;;;16.70;12.32;;;6.90;79.20;;;;;;4999135;28;20217;-74
2021/01/24 10:58:00;;;;;;;17.35;14.57;;;6.40;81.00;;;;;;4996676;28;20404;-75
2021/01/24 11:00:27;;;;;;;21.25;16.33;;;6.30;83.30;;;;;;4993980;28;20232;-74
2021/01/24 11:02:55;;;;;;;21.95;17.58;;;6.10;82.50;;;;;;4995541;28;20510;-74
2021/01/24 11:05:23;;;;;;;25.65;17.48;;;6.50;81.70;;;;;;4996524;28;20241;-74
2021/01/24 11:07:49;;;;;;;16.83;13.10;;;6.40;82.40;;;;;;4990823;28;20213;-76
2021/01/24 11:10:18;;;;;;;15.65;13.35;;;6.10;81.30;;;;;;4994650;28;20218;-74
2021/01/24 11:12:45;;;;;;;30.98;20.10;;;5.90;82.90;;;;;;4997462;28;20233;-74
2021/01/24 11:15:12;;;;;;;28.55;21.45;;;5.90;83.00;;;;;;4994634;28;20224;-74
2021/01/24 11:17:39;;;;;;;25.25;15.60;;;6.00;84.00;;;;;;4997157;28;20264;-75
2021/01/24 11:20:08;;;;;;;24.85;16.15;;;5.50;84.50;;;;;;4998953;28;20272;-75
2021/01/24 11:22:36;;;;;;;25.30;18.83;;;5.50;85.40;;;;;;4996741;28;20213;-75
2021/01/24 11:25:07;;;;;;;34.47;22.45;;;5.70;85.50;;;;;;4992481;28;20214;-74
2021/01/24 11:27:35;;;;;;;32.45;23.63;;;5.70;86.10;;;;;;4990798;28;20220;-74
2021/01/24 11:30:06;;;;;;;57.88;33.78;;;5.90;85.40;;;;;;4983465;28;20509;-74
2021/01/24 11:32:33;;;;;;;34.85;22.77;;;6.00;85.80;;;;;;4985601;28;20551;-73
2021/01/24 11:35:10;;;;;;;34.70;22.20;;;5.90;85.20;;;;;;4982375;28;20206;-74
2021/01/24 11:37:41;;;;;;;46.97;23.65;;;5.90;85.60;;;;;;4998422;28;20214;-74
2021/01/24 11:40:09;;;;;;;35.10;22.30;;;6.10;84.30;;;;;;4997412;28;20206;-74
2021/01/24 11:42:35;;;;;;;28.02;18.60;;;6.30;83.80;;;;;;4997340;28;20499;-74
2021/01/24 11:45:06;;;;;;;23.67;16.13;;;6.70;84.20;;;;;;4986656;28;20253;-74
2021/01/24 11:47:34;;;;;;;42.83;20.75;;;6.30;83.30;;;;;;4984303;28;20250;-75
2021/01/24 11:50:03;;;;;;;28.83;19.80;;;6.20;85.40;;;;;;4997018;28;20206;-75
2021/01/24 11:52:29;;;;;;;39.30;24.58;;;6.10;83.60;;;;;;4996497;28;20236;-75
2021/01/24 11:54:56;;;;;;;31.25;20.55;;;6.30;84.80;;;;;;4989673;28;20277;-73
2021/01/24 11:57:22;;;;;;;31.05;20.92;;;6.40;83.50;;;;;;4980192;28;20287;-75
2021/01/24 11:59:49;;;;;;;39.17;24.35;;;7.60;85.20;;;;;;4992340;28;20205;-74
2021/01/24 12:02:15;;;;;;;37.28;21.95;;;6.00;85.30;;;;;;4996671;28;20214;-74
2021/01/24 12:04:42;;;;;;;34.53;21.17;;;6.20;84.40;;;;;;4991827;28;20214;-75
2021/01/24 12:07:12;;;;;;;30.65;19.67;;;6.40;84.40;;;;;;4980444;28;20249;-73
2021/01/24 12:09:39;;;;;;;34.00;20.88;;;6.50;83.30;;;;;;4977214;28;20284;-75
2021/01/24 12:12:06;;;;;;;30.65;21.05;;;6.80;82.20;;;;;;4989634;28;20240;-74
2021/01/24 12:14:32;;;;;;;29.02;19.15;;;6.80;82.50;;;;;;4978710;28;20650;-74
2021/01/24 12:16:59;;;;;;;45.30;26.40;;;6.90;83.40;;;;;;5011651;28;20221;-75
2021/01/24 12:19:26;;;;;;;27.67;17.98;;;6.70;80.50;;;;;;4991139;28;20214;-75
2021/01/24 12:21:52;;;;;;;20.92;15.52;;;6.40;81.40;;;;;;4993752;28;20505;-75
2021/01/24 12:24:19;;;;;;;20.35;13.82;;;6.00;80.00;;;;;;4998870;28;20216;-75
2021/01/24 12:26:46;;;;;;;22.45;16.27;;;5.70;81.10;;;;;;4997917;28;20221;-74
2021/01/24 12:29:12;;;;;;;23.25;16.48;;;6.00;81.60;;;;;;4991976;28;20209;-74
2021/01/24 12:31:39;;;;;;;21.75;15.85;;;5.70;82.50;;;;;;4985578;28;20256;-74
2021/01/24 12:34:06;;;;;;;25.75;16.30;;;5.70;82.10;;;;;;4982846;28;20519;-74
2021/01/24 12:36:32;;;;;;;19.38;16.30;;;5.30;83.90;;;;;;4978184;28;20212;-74
2021/01/24 12:38:59;;;;;;;23.50;15.30;;;5.10;85.80;;;;;;4984695;28;20210;-75
2021/01/24 12:41:25;;;;;;;22.65;14.52;;;5.00;86.50;;;;;;4996952;28;20266;-74
2021/01/24 12:43:52;;;;;;;21.13;15.85;;;3.70;85.10;;;;;;4987560;28;20550;-74
2021/01/24 12:46:19;;;;;;;22.15;15.68;;;5.00;85.90;;;;;;4983215;28;20624;-74
2021/01/24 12:48:45;;;;;;;27.48;16.95;;;5.10;85.50;;;;;;4996827;28;20343;-73